Hauptseite
METAR-TAF:

METAR-TAF

Flughäfen :

Cambridge, England

Breite: 52-12N, Länge: 000-11E, Höhe: 15 m

Beobachtung

Neuester Wetterbericht von vor 2 Stunden und 45 Minuten, um 18:20 UTC
Wind 6 kt aus West/Südwest
Temperatur 5°C
Luftfeuchtigkeit 87%
Luftdruck 1001 hPa
Sichtweite 10 km oder mehr
Leicht bewölkt in der Höhe von 4000 ft

METAR: EGSC 161820Z 25006KT 9999 FEW040 05/03 Q1001

Zeit: 21:05 (21:05 UTC)

Prognose

Neuester Wetterbericht von vor 4 Stunden und 2 Minuten, um 17:03 UTC
Gültige Prognose vom 16 um 18 UTC bis 16 um 21 UTC
Wind 10 kt aus West
Sichtweite 10 km oder mehr
Aufgelockert bewölkt in der Höhe von 1600 ft

TAF: EGSC 161703Z 1618/1621 27010KT 9999 SCT016

Wetterbeobachtungen und Prognosen von mehr als 4000 Flughäfen (METAR und TAF Bericht).

Die verfügbaren Stationen werden durch gelbe und rote Markierungen auf der Karte dargestellt.

Führen Sie die Maus auf sie, um den Namen der Station zu sehen.

Darauf klicken, um die Beobachtung von Wetterbeobachtungen und Prognosen zu sehen.

Um die Karte zu ändern : klicken Sie auf den grünen Tasten mit einem schwarzen Kreuz Zum Vergrößern, auf den grünen Button mit einem Gedankenstrich zu verkleinern, oder auf die grünen Pfeile für benachbarte Karten.


METAR-TAF: